Time;durP1;ratioP1;P1;durP2;ratioP2;P2;SDS_P1;SDS_P2;PMS_P1;PMS_P2;Temp;Humidity;BMP_temperature;BMP_pressure;BME280_temperature;BME280_humidity;BME280_pressure;Samples;Min_cycle;Max_cycle;Signal;HPM_P1;HPM_P2
2023/02/01 00:00:13;;;;;;;23.75;15.20;;;-0.10;99.90;;;;;;5012878;28;20030;-87
2023/02/01 00:02:40;;;;;;;27.55;15.18;;;-0.10;99.90;;;;;;5012219;28;20025;-87
2023/02/01 00:05:10;;;;;;;22.38;13.55;;;0.00;99.90;;;;;;5013395;28;20026;-86
2023/02/01 00:07:39;;;;;;;27.13;15.10;;;0.00;99.90;;;;;;5012154;28;20021;-88
2023/02/01 00:10:06;;;;;;;31.25;13.95;;;0.00;99.90;;;;;;5013008;28;20076;-89
2023/02/01 00:12:33;;;;;;;35.60;15.77;;;0.00;99.90;;;;;;5013161;28;20049;-89
2023/02/01 00:14:58;;;;;;;28.88;15.25;;;0.00;99.90;;;;;;5012155;28;20034;-85
2023/02/01 00:17:24;;;;;;;30.67;16.95;;;0.00;99.90;;;;;;5012783;28;20026;-86
2023/02/01 00:19:50;;;;;;;29.25;14.70;;;0.00;99.90;;;;;;5012785;28;20018;-83
2023/02/01 00:22:16;;;;;;;31.85;16.75;;;0.00;99.90;;;;;;5011425;28;20470;-83
2023/02/01 00:24:49;;;;;;;33.65;19.45;;;0.00;99.90;;;;;;5012626;28;20053;-83
2023/02/01 00:27:17;;;;;;;32.35;17.00;;;0.10;99.90;;;;;;5011346;28;20403;-83
2023/02/01 00:29:44;;;;;;;35.03;18.10;;;0.10;99.90;;;;;;5012952;28;20076;-84
2023/02/01 00:32:10;;;;;;;38.78;20.25;;;0.10;99.90;;;;;;5011460;28;20014;-83
2023/02/01 00:34:39;;;;;;;30.17;17.88;;;0.10;99.90;;;;;;5013314;28;20037;-86
2023/02/01 00:37:05;;;;;;;34.78;17.45;;;0.10;99.90;;;;;;5009925;28;20036;-84
2023/02/01 00:39:31;;;;;;;35.17;18.67;;;0.10;99.90;;;;;;5011923;28;20117;-86
2023/02/01 00:42:03;;;;;;;31.38;16.70;;;0.10;99.90;;;;;;5012276;28;20018;-85
2023/02/01 00:44:32;;;;;;;35.83;18.13;;;0.10;99.90;;;;;;5012978;28;20014;-83
2023/02/01 00:46:59;;;;;;;28.77;17.30;;;0.10;99.90;;;;;;5011543;28;20073;-86
2023/02/01 00:49:28;;;;;;;28.38;16.63;;;0.10;99.90;;;;;;5010948;28;20485;-87
2023/02/01 00:51:56;;;;;;;29.88;17.55;;;0.10;99.90;;;;;;5012497;28;20030;-86
2023/02/01 00:54:22;;;;;;;29.23;16.80;;;0.10;99.90;;;;;;5012925;28;20075;-86
2023/02/01 00:57:17;;;;;;;30.23;16.90;;;0.10;99.90;;;;;;5010971;28;20049;-86
2023/02/01 00:59:47;;;;;;;31.23;16.77;;;0.10;99.90;;;;;;5011759;28;20041;-83
2023/02/01 01:02:23;;;;;;;39.28;20.48;;;0.10;99.90;;;;;;5011629;28;20060;-84
2023/02/01 01:05:19;;;;;;;;;;;;;;;;;;;;;
2023/02/01 01:07:51;;;;;;;33.65;16.95;;;0.10;99.90;;;;;;5009120;28;20080;-89
2023/02/01 01:10:22;;;;;;;32.63;17.98;;;0.10;99.90;;;;;;5012434;28;20024;-90
2023/02/01 01:12:53;;;;;;;32.55;18.88;;;0.20;99.90;;;;;;5011074;28;20361;-87
2023/02/01 01:15:19;;;;;;;29.38;15.07;;;0.20;99.90;;;;;;5009025;28;20499;-89
2023/02/01 01:17:50;;;;;;;17.38;10.65;;;0.20;99.90;;;;;;5011427;28;20030;-89
2023/02/01 01:20:21;;;;;;;17.35;9.10;;;0.20;99.90;;;;;;5010342;28;20030;-87
2023/02/01 01:22:47;;;;;;;16.73;9.20;;;0.20;99.90;;;;;;5012319;28;20026;-89
2023/02/01 01:25:14;;;;;;;14.48;8.05;;;0.20;99.90;;;;;;5010996;28;20052;-90
2023/02/01 01:27:58;;;;;;;14.52;7.88;;;0.30;99.90;;;;;;5012302;28;20069;-86
2023/02/01 01:30:39;;;;;;;;;;;;;;;;;;;;;
2023/02/01 01:33:15;;;;;;;8.32;6.05;;;0.30;99.90;;;;;;5012148;28;20037;-91
2023/02/01 01:35:51;;;;;;;13.80;7.53;;;0.30;99.90;;;;;;5012589;28;20029;-89
2023/02/01 01:38:20;;;;;;;7.32;4.53;;;0.30;99.90;;;;;;5012676;28;20032;-86
2023/02/01 01:40:47;;;;;;;4.97;3.78;;;0.40;99.90;;;;;;5012571;28;20080;-88
2023/02/01 01:43:19;;;;;;;3.78;3.47;;;0.40;99.90;;;;;;5012397;28;20071;-86
2023/02/01 01:45:45;;;;;;;14.30;4.85;;;0.40;99.90;;;;;;5014836;28;20428;-89
2023/02/01 01:48:27;;;;;;;5.25;2.63;;;0.40;99.90;;;;;;5015983;28;20042;-86
2023/02/01 01:51:10;;;;;;;4.22;2.28;;;0.40;99.90;;;;;;5015288;28;20037;-89
2023/02/01 01:53:46;;;;;;;5.18;2.75;;;0.40;99.90;;;;;;5014141;28;20041;-89
2023/02/01 01:56:12;;;;;;;4.85;1.77;;;0.50;99.90;;;;;;5014731;28;20058;-87
2023/02/01 01:58:39;;;;;;;5.18;2.15;;;0.50;99.90;;;;;;5014104;28;20030;-87
2023/02/01 02:01:04;;;;;;;5.05;2.45;;;0.50;99.90;;;;;;5016025;28;20026;-83
2023/02/01 02:03:41;;;;;;;5.40;2.05;;;0.50;99.90;;;;;;5015614;28;20044;-88
2023/02/01 02:06:19;;;;;;;2.35;1.95;;;0.50;99.90;;;;;;5013439;28;20025;-88
2023/02/01 02:08:45;;;;;;;3.30;1.83;;;0.50;99.90;;;;;;5014583;28;20026;-87
2023/02/01 02:11:16;;;;;;;6.93;2.42;;;0.50;99.90;;;;;;5013981;28;20036;-86
2023/02/01 02:13:46;;;;;;;4.25;2.03;;;0.50;99.90;;;;;;5014382;28;20499;-82
2023/02/01 02:16:29;;;;;;;5.78;3.40;;;0.50;99.90;;;;;;5015015;28;20030;-86
2023/02/01 02:19:35;;;;;;;9.60;3.00;;;0.50;99.90;;;;;;5014638;28;20053;-88
2023/02/01 02:22:22;;;;;;;3.55;3.05;;;0.50;99.90;;;;;;5014013;28;20458;-83
2023/02/01 02:24:54;;;;;;;5.13;3.45;;;0.50;99.90;;;;;;5014518;28;20033;-86
2023/02/01 02:27:25;;;;;;;6.87;3.07;;;0.50;99.90;;;;;;5013348;28;20124;-86
2023/02/01 02:30:25;;;;;;;7.03;2.28;;;0.50;99.90;;;;;;5015467;28;20615;-83
2023/02/01 02:33:12;;;;;;;3.47;1.85;;;0.50;99.90;;;;;;5014015;28;20037;-84
2023/02/01 02:36:16;;;;;;;6.32;3.20;;;0.50;99.90;;;;;;5014797;28;20022;-84
2023/02/01 02:39:13;;;;;;;3.10;2.15;;;0.50;99.90;;;;;;4994037;28;20112;-84
2023/02/01 02:48:16;;;;;;;13.05;4.80;;;0.60;99.90;;;;;;5014485;28;20077;-83
2023/02/01 03:05:01;;;;;;;6.50;2.40;;;0.50;99.90;;;;;;5033843;28;20068;-85
2023/02/01 03:07:58;;;;;;;5.35;2.55;;;0.50;99.90;;;;;;5032571;28;20026;-84
2023/02/01 03:10:34;;;;;;;6.60;2.42;;;0.50;99.90;;;;;;5033948;28;20108;-84
2023/02/01 03:13:20;;;;;;;7.85;2.70;;;0.50;99.90;;;;;;5032216;28;20026;-86
2023/02/01 03:16:04;;;;;;;9.23;2.17;;;0.50;99.90;;;;;;5012551;28;20383;-83
2023/02/01 03:18:53;;;;;;;3.80;2.72;;;0.60;99.90;;;;;;5014079;28;20080;-83
2023/02/01 03:21:30;;;;;;;4.22;1.95;;;0.60;99.90;;;;;;5014338;28;20034;-85
2023/02/01 03:24:02;;;;;;;5.65;2.20;;;0.60;99.90;;;;;;5014165;28;20022;-86
2023/02/01 03:26:38;;;;;;;7.72;2.60;;;0.60;99.90;;;;;;5014114;28;20034;-86
2023/02/01 03:29:22;;;;;;;8.65;2.88;;;0.50;99.90;;;;;;5013780;28;20044;-83
2023/02/01 03:31:48;;;;;;;10.48;2.92;;;0.50;99.90;;;;;;5013908;28;20419;-86
2023/02/01 03:34:14;;;;;;;5.22;2.60;;;0.50;99.90;;;;;;5013839;28;20022;-86
2023/02/01 03:36:50;;;;;;;7.82;2.10;;;0.60;99.90;;;;;;5012566;28;20022;-86
2023/02/01 03:39:27;;;;;;;7.10;3.13;;;0.60;99.90;;;;;;5014102;28;20352;-83
2023/02/01 03:42:07;;;;;;;6.18;3.00;;;0.50;99.90;;;;;;5010014;28;20030;-84
2023/02/01 03:44:58;;;;;;;4.03;2.33;;;0.60;99.90;;;;;;5012005;28;20030;-84
2023/02/01 03:47:29;;;;;;;7.50;4.10;;;0.60;99.90;;;;;;5012024;28;20034;-84
2023/02/01 03:50:01;;;;;;;6.72;3.05;;;0.60;99.90;;;;;;4997574;28;20026;-85
2023/02/01 03:52:34;;;;;;;5.45;3.58;;;0.60;99.90;;;;;;4992703;28;20500;-86
2023/02/01 03:55:08;;;;;;;4.32;2.75;;;0.60;99.90;;;;;;4993325;28;20029;-87
2023/02/01 03:57:53;;;;;;;7.63;3.58;;;0.60;99.90;;;;;;4992829;28;20396;-84
2023/02/01 04:00:23;;;;;;;6.30;2.70;;;0.60;99.90;;;;;;4992143;28;20034;-83
2023/02/01 04:02:57;;;;;;;5.22;2.58;;;0.60;99.90;;;;;;4991997;28;20081;-87
2023/02/01 04:05:23;;;;;;;5.28;3.05;;;0.60;99.90;;;;;;4992393;28;20400;-86
2023/02/01 04:07:51;;;;;;;4.93;2.17;;;0.60;99.90;;;;;;4992194;28;20019;-86
2023/02/01 04:10:17;;;;;;;6.70;2.60;;;0.60;99.90;;;;;;4991584;28;20435;-86
2023/02/01 04:12:46;;;;;;;2.95;2.53;;;0.70;99.90;;;;;;4991863;28;20105;-83
2023/02/01 04:15:12;;;;;;;5.13;2.58;;;0.70;99.90;;;;;;4992030;28;20133;-84
2023/02/01 04:17:41;;;;;;;5.10;2.58;;;0.70;99.90;;;;;;4992516;28;20109;-84
2023/02/01 04:20:10;;;;;;;8.00;3.13;;;0.70;99.90;;;;;;4992053;28;20015;-84
2023/02/01 04:22:35;;;;;;;4.68;3.42;;;0.70;99.90;;;;;;4993106;28;20027;-84
2023/02/01 04:25:01;;;;;;;2.70;2.50;;;0.70;99.90;;;;;;4992966;28;20037;-83
2023/02/01 04:27:29;;;;;;;5.13;2.75;;;0.70;99.90;;;;;;4992721;28;20104;-87
2023/02/01 04:29:55;;;;;;;6.28;2.90;;;0.70;99.90;;;;;;4992312;28;20015;-84
2023/02/01 04:32:21;;;;;;;4.85;2.58;;;0.80;99.90;;;;;;4993257;28;20045;-84
2023/02/01 04:34:54;;;;;;;4.40;2.20;;;0.80;99.90;;;;;;4993352;28;20030;-87
2023/02/01 04:37:23;;;;;;;7.60;3.25;;;0.80;99.90;;;;;;4992264;28;20026;-84
2023/02/01 04:39:49;;;;;;;5.18;2.58;;;0.80;99.90;;;;;;4992404;28;20391;-84
2023/02/01 04:42:22;;;;;;;4.68;2.70;;;0.80;99.90;;;;;;4992137;28;20026;-86
2023/02/01 04:44:48;;;;;;;7.30;3.03;;;0.80;99.90;;;;;;4993624;28;20526;-84
2023/02/01 04:47:15;;;;;;;3.15;2.90;;;0.80;99.90;;;;;;4992923;28;20046;-85
2023/02/01 04:49:43;;;;;;;6.88;2.80;;;0.80;99.90;;;;;;4992927;28;20037;-84
2023/02/01 04:52:27;;;;;;;5.70;3.10;;;0.80;99.90;;;;;;4991892;28;20361;-86
2023/02/01 04:54:57;;;;;;;9.60;2.70;;;0.80;99.90;;;;;;4991717;28;20023;-86
2023/02/01 04:57:33;;;;;;;;;;;;;;;;;;;;;
2023/02/01 04:59:59;;;;;;;8.18;3.05;;;0.80;99.90;;;;;;4985932;28;20042;-84
2023/02/01 05:02:34;;;;;;;8.68;3.53;;;0.80;99.90;;;;;;4993388;28;20101;-85
2023/02/01 05:05:00;;;;;;;4.20;3.00;;;0.80;99.90;;;;;;4992488;28;20022;-86
2023/02/01 05:07:34;;;;;;;7.95;2.50;;;0.80;99.90;;;;;;4991241;28;20022;-83
2023/02/01 05:10:03;;;;;;;11.13;3.78;;;0.80;99.90;;;;;;4991138;28;20023;-86
2023/02/01 05:15:14;;;;;;;5.95;3.03;;;0.80;99.90;;;;;;4991711;28;20032;-87
2023/02/01 05:17:42;;;;;;;7.10;3.15;;;0.80;99.90;;;;;;4991849;28;20074;-85
2023/02/01 05:20:09;;;;;;;6.82;2.92;;;0.80;99.90;;;;;;4994087;28;20027;-86
2023/02/01 05:22:42;;;;;;;3.75;3.15;;;0.80;99.90;;;;;;4996916;28;20026;-86
2023/02/01 05:25:09;;;;;;;7.85;4.63;;;0.80;99.90;;;;;;4995727;28;20431;-85
2023/02/01 05:27:35;;;;;;;10.63;3.80;;;0.80;99.90;;;;;;4995272;28;20109;-85
2023/02/01 05:30:01;;;;;;;7.15;2.67;;;0.80;99.90;;;;;;4996455;28;20053;-85
2023/02/01 05:32:27;;;;;;;7.80;3.13;;;0.80;99.90;;;;;;4996805;28;20392;-84
2023/02/01 05:34:55;;;;;;;8.80;2.88;;;0.80;99.90;;;;;;4996633;28;20026;-86
2023/02/01 05:37:21;;;;;;;4.38;3.22;;;0.80;99.90;;;;;;4996181;28;20455;-86
2023/02/01 05:39:47;;;;;;;5.93;2.80;;;0.80;99.90;;;;;;4996406;28;20109;-83
2023/02/01 05:42:15;;;;;;;8.23;4.10;;;0.80;99.90;;;;;;4995399;28;20023;-83
2023/02/01 05:44:41;;;;;;;10.75;4.40;;;0.80;99.90;;;;;;4995040;28;20027;-86
2023/02/01 05:47:08;;;;;;;12.05;3.97;;;0.70;99.90;;;;;;4996762;28;20538;-84
2023/02/01 05:49:33;;;;;;;9.50;4.28;;;0.70;99.90;;;;;;4996398;28;20037;-84
2023/02/01 05:51:59;;;;;;;10.18;3.75;;;0.60;99.90;;;;;;4994985;28;20022;-86
2023/02/01 05:54:25;;;;;;;8.40;4.00;;;0.60;99.90;;;;;;4994971;28;20030;-84
2023/02/01 05:56:51;;;;;;;15.23;4.50;;;0.60;99.90;;;;;;4994801;28;20499;-83
2023/02/01 05:59:16;;;;;;;6.57;3.72;;;0.60;99.90;;;;;;4995267;28;20436;-84
2023/02/01 06:01:42;;;;;;;8.45;3.95;;;0.60;99.90;;;;;;4996084;28;20032;-86
2023/02/01 06:04:08;;;;;;;7.15;3.42;;;0.60;99.90;;;;;;4995832;28;20022;-84
2023/02/01 06:06:34;;;;;;;10.15;4.95;;;0.60;99.90;;;;;;4996254;28;20030;-85
2023/02/01 06:09:00;;;;;;;7.32;4.13;;;0.60;99.90;;;;;;4995265;28;20037;-86
2023/02/01 06:11:27;;;;;;;11.27;5.03;;;0.60;99.90;;;;;;4994640;28;20399;-86
2023/02/01 06:13:54;;;;;;;15.82;6.90;;;0.60;99.90;;;;;;4994422;28;20154;-85
2023/02/01 06:16:23;;;;;;;15.93;8.15;;;0.60;99.90;;;;;;4994801;28;20228;-86
2023/02/01 06:18:49;;;;;;;18.40;10.10;;;0.60;99.90;;;;;;4995551;28;20034;-85
2023/02/01 06:21:23;;;;;;;17.98;8.73;;;0.60;99.90;;;;;;4994098;28;20019;-83
2023/02/01 06:23:57;;;;;;;18.27;10.13;;;0.60;99.90;;;;;;4995893;28;20026;-85
2023/02/01 06:26:23;;;;;;;22.13;10.55;;;0.60;99.90;;;;;;4995335;28;20026;-83
2023/02/01 06:28:49;;;;;;;19.58;11.00;;;0.60;99.90;;;;;;4995649;28;20027;-85
2023/02/01 06:31:14;;;;;;;19.60;11.30;;;0.60;99.90;;;;;;4994962;28;20050;-84
2023/02/01 06:33:40;;;;;;;30.95;13.90;;;0.60;99.90;;;;;;4994473;28;20027;-83
2023/02/01 06:36:07;;;;;;;27.35;12.40;;;0.50;99.90;;;;;;4994013;28;20018;-84
2023/02/01 06:38:34;;;;;;;23.23;12.43;;;0.50;99.90;;;;;;4995653;28;20140;-84
2023/02/01 06:41:00;;;;;;;24.25;14.65;;;0.50;99.90;;;;;;4994212;28;20019;-83
2023/02/01 06:43:27;;;;;;;31.30;14.27;;;0.50;99.90;;;;;;4995505;28;20026;-86
2023/02/01 06:45:53;;;;;;;24.95;12.95;;;0.50;99.90;;;;;;4994666;28;20038;-85
2023/02/01 06:48:19;;;;;;;29.27;14.90;;;0.50;99.90;;;;;;4995447;28;20018;-87
2023/02/01 06:50:45;;;;;;;26.85;15.93;;;0.50;99.90;;;;;;4995722;28;20031;-87
2023/02/01 06:53:10;;;;;;;30.23;15.43;;;0.50;99.90;;;;;;4993931;28;20384;-86
2023/02/01 06:55:36;;;;;;;42.05;19.85;;;0.40;99.90;;;;;;4995282;28;20464;-85
2023/02/01 06:58:02;;;;;;;29.38;15.45;;;0.50;99.90;;;;;;4993963;28;20080;-85
2023/02/01 07:00:29;;;;;;;23.58;14.40;;;0.40;99.90;;;;;;4995417;28;20052;-85
2023/02/01 07:02:55;;;;;;;28.10;13.88;;;0.40;99.90;;;;;;4994057;28;20019;-85
2023/02/01 07:05:21;;;;;;;31.17;14.32;;;0.50;99.90;;;;;;4995034;28;20436;-85
2023/02/01 07:07:46;;;;;;;30.73;14.77;;;0.50;99.90;;;;;;4995302;28;20029;-87
2023/02/01 07:10:13;;;;;;;24.80;14.80;;;0.50;99.90;;;;;;4994531;28;20026;-85
2023/02/01 07:12:39;;;;;;;23.83;13.43;;;0.50;99.90;;;;;;4993800;28;20053;-85
2023/02/01 07:15:05;;;;;;;35.00;13.32;;;0.50;99.90;;;;;;4993724;28;20026;-84
2023/02/01 07:17:44;;;;;;;;;;;;;;;;;;;;;
2023/02/01 07:20:19;;;;;;;27.33;14.75;;;0.50;99.90;;;;;;4989374;28;20053;-85
2023/02/01 07:23:14;;;;;;;25.77;14.57;;;0.60;99.90;;;;;;4989197;28;20145;-84
2023/02/01 07:26:16;;;;;;;27.95;15.35;;;0.60;99.90;;;;;;4989377;28;20050;-87
2023/02/01 07:28:52;;;;;;;27.87;14.13;;;0.60;99.90;;;;;;4994138;28;20027;-83
2023/02/01 07:31:33;;;;;;;30.60;14.63;;;0.60;99.90;;;;;;4991627;28;20396;-85
2023/02/01 07:34:04;;;;;;;32.88;15.52;;;0.60;99.90;;;;;;4991027;28;20026;-86
2023/02/01 07:36:37;;;;;;;26.25;14.75;;;0.60;99.90;;;;;;4990695;28;20536;-87
2023/02/01 07:39:18;;;;;;;28.58;14.82;;;0.60;99.90;;;;;;4989534;28;20190;-84
2023/02/01 07:41:49;;;;;;;31.92;17.45;;;0.70;99.90;;;;;;4988033;28;20034;-83
2023/02/01 07:44:23;;;;;;;32.92;15.55;;;0.70;99.90;;;;;;4989914;28;20533;-84
2023/02/01 07:47:03;;;;;;;35.53;17.92;;;0.70;99.90;;;;;;4989023;28;20090;-85
2023/02/01 07:49:41;;;;;;;;;;;;;;;;;;;;;
2023/02/01 07:52:13;;;;;;;35.00;15.93;;;0.70;99.90;;;;;;4988942;28;20035;-87
2023/02/01 07:54:51;;;;;;;31.90;15.30;;;0.80;99.90;;;;;;4991399;28;20029;-86
2023/02/01 07:57:17;;;;;;;33.05;14.00;;;0.80;99.90;;;;;;4990171;28;20421;-85
2023/02/01 08:02:28;;;;;;;25.25;13.80;;;0.80;99.90;;;;;;4990472;28;20085;-86
2023/02/01 08:04:53;;;;;;;30.20;15.05;;;0.80;99.90;;;;;;4991247;28;20022;-85
2023/02/01 08:07:19;;;;;;;31.92;15.52;;;0.90;99.90;;;;;;4992754;28;20488;-86
2023/02/01 08:09:48;;;;;;;37.85;18.13;;;0.90;99.90;;;;;;4990603;28;20033;-86
2023/02/01 08:12:14;;;;;;;37.13;18.23;;;1.00;99.90;;;;;;4991225;28;20677;-83
2023/02/01 08:14:42;;;;;;;50.83;21.83;;;1.00;99.90;;;;;;4992426;28;20058;-87
2023/02/01 08:17:11;;;;;;;35.13;15.40;;;1.00;99.90;;;;;;4989408;28;20105;-86
2023/02/01 08:19:36;;;;;;;38.55;16.20;;;1.10;99.90;;;;;;4991736;28;20023;-84
2023/02/01 08:22:06;;;;;;;34.45;16.52;;;1.10;99.90;;;;;;4991990;28;20026;-86
2023/02/01 08:24:33;;;;;;;25.58;11.98;;;1.20;99.90;;;;;;4992154;28;20019;-86
2023/02/01 08:27:03;;;;;;;22.40;10.60;;;1.20;99.90;;;;;;4991803;28;20068;-86
2023/02/01 08:29:34;;;;;;;20.77;9.88;;;1.40;99.90;;;;;;4991822;28;20034;-84
2023/02/01 08:32:00;;;;;;;22.88;11.07;;;1.40;99.90;;;;;;4992113;28;20026;-85
2023/02/01 08:34:26;;;;;;;29.40;12.27;;;1.50;99.90;;;;;;4989555;28;20400;-83
2023/02/01 08:36:57;;;;;;;36.42;12.77;;;1.50;99.90;;;;;;4992168;28;20023;-83
2023/02/01 08:39:32;;;;;;;30.90;11.60;;;1.60;99.90;;;;;;4988983;28;20077;-84
2023/02/01 08:44:42;;;;;;;22.10;9.77;;;1.70;99.90;;;;;;4989692;28;20037;-83
2023/02/01 08:47:11;;;;;;;27.20;9.75;;;1.70;99.90;;;;;;4993014;28;20121;-85
2023/02/01 08:49:37;;;;;;;21.67;9.05;;;1.60;99.90;;;;;;4994575;28;20526;-84
2023/02/01 08:52:03;;;;;;;18.60;8.35;;;1.70;99.90;;;;;;4991832;28;20026;-83
2023/02/01 08:54:30;;;;;;;18.75;9.88;;;1.70;99.90;;;;;;4993360;28;20503;-85
2023/02/01 08:56:56;;;;;;;20.55;8.80;;;1.70;99.90;;;;;;4994496;28;20039;-85
2023/02/01 08:59:22;;;;;;;20.23;10.40;;;1.80;99.90;;;;;;4995777;28;20085;-85
2023/02/01 09:01:47;;;;;;;19.98;9.23;;;1.80;99.90;;;;;;4996232;28;20074;-84
2023/02/01 09:04:13;;;;;;;22.70;10.57;;;1.80;99.90;;;;;;4997301;28;20072;-86
2023/02/01 09:06:41;;;;;;;20.38;10.45;;;1.80;99.90;;;;;;4997008;28;20030;-85
2023/02/01 09:09:06;;;;;;;25.73;13.70;;;1.80;99.90;;;;;;4996645;28;20031;-86
2023/02/01 09:11:32;;;;;;;29.00;15.40;;;1.80;99.90;;;;;;4997201;28;20030;-86
2023/02/01 09:13:58;;;;;;;28.85;14.10;;;1.70;99.90;;;;;;4997083;28;20392;-84
2023/02/01 09:16:24;;;;;;;23.67;13.35;;;1.70;99.90;;;;;;4995813;28;20034;-84
2023/02/01 09:18:50;;;;;;;22.65;11.75;;;1.70;99.90;;;;;;4994018;28;20361;-86
2023/02/01 09:21:17;;;;;;;27.27;11.27;;;1.80;99.90;;;;;;4994252;28;20030;-84
2023/02/01 09:23:45;;;;;;;23.55;10.55;;;1.80;99.90;;;;;;4996005;28;20057;-85
2023/02/01 09:26:13;;;;;;;26.63;11.32;;;1.90;99.90;;;;;;4994974;28;20141;-86
2023/02/01 09:28:38;;;;;;;22.58;10.30;;;1.90;99.90;;;;;;4994938;28;20026;-87
2023/02/01 09:31:04;;;;;;;32.50;13.35;;;1.90;99.90;;;;;;4995106;28;20088;-84
2023/02/01 09:33:39;;;;;;;31.55;15.25;;;2.00;99.90;;;;;;4994633;28;20538;-87
2023/02/01 09:36:09;;;;;;;32.05;15.15;;;2.10;99.90;;;;;;4995142;28;20046;-85
2023/02/01 09:38:41;;;;;;;30.25;14.57;;;2.20;99.90;;;;;;4994832;28;20443;-86
2023/02/01 09:41:18;;;;;;;32.78;14.38;;;2.20;99.90;;;;;;4994914;28;20031;-84
2023/02/01 09:44:16;;;;;;;24.60;12.13;;;2.30;99.90;;;;;;4995027;28;20030;-85
2023/02/01 09:46:45;;;;;;;31.45;13.70;;;2.30;99.90;;;;;;4991912;28;20105;-85
2023/02/01 09:49:33;;;;;;;24.15;12.48;;;2.20;99.90;;;;;;4993265;28;20837;-85
2023/02/01 09:52:06;;;;;;;16.30;9.90;;;2.10;99.90;;;;;;4990812;28;20038;-84
2023/02/01 09:54:49;;;;;;;18.38;9.48;;;2.00;99.90;;;;;;4990111;28;20049;-84
2023/02/01 09:57:27;;;;;;;25.42;10.82;;;1.90;99.90;;;;;;4994881;28;20046;-85
2023/02/01 10:00:00;;;;;;;23.58;11.68;;;1.90;99.90;;;;;;4993254;28;20117;-84
2023/02/01 10:02:31;;;;;;;26.08;13.02;;;2.00;99.90;;;;;;4993615;28;20026;-87
2023/02/01 10:05:12;;;;;;;31.08;14.23;;;2.00;99.90;;;;;;4993593;28;20388;-85
2023/02/01 10:08:01;;;;;;;33.08;15.38;;;2.10;99.90;;;;;;4996191;28;20365;-85
2023/02/01 10:10:50;;;;;;;31.80;15.68;;;2.10;99.90;;;;;;4996046;28;20033;-85
2023/02/01 10:13:40;;;;;;;37.35;14.25;;;2.20;99.90;;;;;;4994243;28;20023;-85
2023/02/01 10:16:22;;;;;;;25.70;13.55;;;2.20;99.90;;;;;;4995018;28;20452;-87
2023/02/01 10:19:20;;;;;;;41.83;16.03;;;2.30;99.90;;;;;;4994799;28;20022;-87
2023/02/01 10:21:56;;;;;;;26.13;12.65;;;2.40;99.90;;;;;;4994978;28;20019;-88
2023/02/01 10:24:46;;;;;;;29.63;17.05;;;2.50;99.90;;;;;;4994138;28;20026;-85
2023/02/01 10:27:21;;;;;;;19.90;9.73;;;2.60;99.90;;;;;;4995314;28;20034;-86
2023/02/01 10:30:00;;;;;;;25.05;10.52;;;2.70;99.90;;;;;;4995576;28;20018;-87
2023/02/01 10:32:32;;;;;;;19.88;10.77;;;2.80;99.90;;;;;;4994949;28;20022;-84
2023/02/01 10:35:13;;;;;;;28.85;11.95;;;2.90;99.90;;;;;;4993545;28;20101;-85
2023/02/01 10:37:45;;;;;;;24.30;11.20;;;3.00;99.90;;;;;;4993594;28;20432;-87
2023/02/01 10:40:21;;;;;;;23.08;13.55;;;3.00;99.90;;;;;;4992443;28;20033;-87
2023/02/01 10:42:48;;;;;;;25.67;12.38;;;3.00;99.90;;;;;;4992174;28;20113;-87
2023/02/01 10:45:18;;;;;;;30.13;15.60;;;3.00;99.90;;;;;;4993760;28;20026;-86
2023/02/01 10:47:44;;;;;;;32.03;15.20;;;3.00;99.90;;;;;;4992999;28;20066;-87
2023/02/01 10:50:31;;;;;;;54.63;29.30;;;3.00;99.90;;;;;;4993931;28;20454;-87
2023/02/01 10:53:06;;;;;;;61.70;32.15;;;2.90;99.90;;;;;;4994101;28;20030;-87
2023/02/01 10:55:46;;;;;;;47.70;26.23;;;2.90;99.90;;;;;;4993680;28;20496;-87
2023/02/01 10:58:28;;;;;;;94.95;35.90;;;2.90;99.90;;;;;;4993526;28;20038;-84
2023/02/01 11:01:01;;;;;;;49.60;23.60;;;3.00;99.90;;;;;;4994620;28;20034;-84
2023/02/01 11:03:44;;;;;;;34.65;14.82;;;3.00;99.90;;;;;;4995153;28;20026;-87
2023/02/01 11:06:10;;;;;;;37.42;16.83;;;2.90;99.90;;;;;;4993373;28;20034;-85
2023/02/01 11:08:47;;;;;;;39.78;20.17;;;2.90;99.90;;;;;;4993725;28;20137;-86
2023/02/01 11:11:13;;;;;;;35.20;15.30;;;2.90;99.90;;;;;;4995031;28;20029;-85
2023/02/01 11:13:39;;;;;;;37.17;16.73;;;2.80;99.90;;;;;;4994895;28;20531;-85
2023/02/01 11:16:14;;;;;;;29.77;15.38;;;2.80;99.90;;;;;;4993695;28;20023;-84
2023/02/01 11:18:40;;;;;;;29.42;14.75;;;2.80;99.90;;;;;;4994934;28;20504;-85
2023/02/01 11:21:08;;;;;;;31.88;13.57;;;2.70;99.90;;;;;;4994340;28;20051;-87
2023/02/01 11:23:44;;;;;;;29.98;13.85;;;2.80;99.90;;;;;;4993400;28;20026;-85
2023/02/01 11:26:12;;;;;;;27.90;13.48;;;2.80;99.90;;;;;;4994720;28;20038;-87
2023/02/01 11:28:40;;;;;;;23.58;13.23;;;2.80;99.90;;;;;;4994712;28;20460;-85
2023/02/01 11:31:11;;;;;;;22.15;12.45;;;2.80;99.90;;;;;;4994107;28;20025;-87
2023/02/01 11:33:48;;;;;;;21.50;11.77;;;2.80;99.90;;;;;;4993994;28;20026;-86
2023/02/01 11:36:17;;;;;;;24.45;11.77;;;2.80;99.90;;;;;;4994346;28;20528;-87
2023/02/01 11:38:52;;;;;;;25.50;12.52;;;2.80;99.90;;;;;;4993667;28;20023;-84
2023/02/01 11:41:27;;;;;;;25.13;11.73;;;2.80;99.90;;;;;;4992510;28;20030;-85
2023/02/01 11:43:57;;;;;;;23.10;11.93;;;2.80;99.90;;;;;;4992809;28;20018;-85
2023/02/01 11:46:37;;;;;;;21.52;10.85;;;2.70;99.90;;;;;;4994559;28;20057;-88
2023/02/01 11:49:26;;;;;;;21.50;10.38;;;2.70;99.90;;;;;;4993875;28;20388;-87
2023/02/01 11:52:00;;;;;;;24.98;11.27;;;2.70;99.90;;;;;;4994459;28;20353;-87
2023/02/01 11:54:54;;;;;;;24.25;12.20;;;2.60;99.90;;;;;;4994235;28;20026;-88
2023/02/01 11:57:23;;;;;;;33.40;15.75;;;2.70;99.90;;;;;;4994056;28;20050;-85
2023/02/01 12:00:19;;;;;;;46.35;21.40;;;2.60;99.90;;;;;;4994031;28;20023;-85
2023/02/01 12:03:06;;;;;;;37.67;18.38;;;2.60;99.90;;;;;;4992518;28;20030;-87
2023/02/01 12:05:49;;;;;;;37.47;16.83;;;2.50;99.90;;;;;;4992540;28;20031;-86
2023/02/01 12:08:26;;;;;;;;;;;2.50;99.90;;;;;;4994387;28;20022;-85
2023/02/01 12:11:18;;;;;;;25.25;13.52;;;2.30;99.90;;;;;;4993779;28;19905;-87
2023/02/01 12:13:53;;;;;;;21.33;13.13;;;2.30;99.90;;;;;;4993019;28;20120;-87
2023/02/01 12:16:43;;;;;;;20.15;12.50;;;2.10;99.90;;;;;;4992645;28;20026;-85
2023/02/01 12:19:39;;;;;;;19.45;11.23;;;2.10;99.90;;;;;;4992950;28;20030;-85
2023/02/01 12:22:43;;;;;;;20.35;10.80;;;2.00;99.90;;;;;;4992430;28;20093;-85
2023/02/01 12:25:19;;;;;;;20.92;11.02;;;1.90;99.90;;;;;;5010889;28;20365;-85
2023/02/01 12:28:09;;;;;;;20.13;11.20;;;1.80;99.90;;;;;;5010683;28;20068;-85
2023/02/01 12:30:53;;;;;;;20.08;11.57;;;1.80;99.90;;;;;;4998944;28;20073;-87
2023/02/01 12:33:36;;;;;;;21.63;13.07;;;1.80;99.90;;;;;;4993696;28;20091;-86
2023/02/01 12:36:08;;;;;;;21.30;12.20;;;1.80;99.90;;;;;;4993493;28;20472;-87
2023/02/01 12:38:51;;;;;;;28.95;14.05;;;1.80;99.90;;;;;;4993259;28;20068;-87
2023/02/01 12:41:29;;;;;;;27.80;12.80;;;1.80;99.90;;;;;;4993197;28;20035;-85
2023/02/01 12:44:30;;;;;;;29.85;13.55;;;1.80;99.90;;;;;;4991502;28;20030;-87
2023/02/01 12:47:22;;;;;;;28.33;14.00;;;1.90;99.90;;;;;;4993947;28;20137;-85
2023/02/01 12:50:17;;;;;;;25.75;13.73;;;1.90;99.90;;;;;;4991881;28;20073;-85
2023/02/01 12:52:48;;;;;;;22.35;13.55;;;1.90;99.90;;;;;;4988164;28;20014;-84
2023/02/01 12:55:25;;;;;;;24.73;14.65;;;1.90;99.90;;;;;;4970117;28;20038;-87
2023/02/01 12:58:17;;;;;;;23.33;12.85;;;1.90;99.90;;;;;;4982389;28;20057;-87
2023/02/01 13:00:54;;;;;;;25.92;13.95;;;1.90;99.90;;;;;;4990089;28;20027;-85
2023/02/01 13:03:34;;;;;;;20.52;12.60;;;1.90;99.90;;;;;;4989692;28;20460;-85
2023/02/01 13:06:15;;;;;;;25.42;12.52;;;1.90;99.90;;;;;;4991380;28;20476;-88
2023/02/01 13:08:57;;;;;;;21.65;12.68;;;1.90;99.90;;;;;;4990546;28;20485;-88
2023/02/01 13:11:32;;;;;;;20.15;11.80;;;1.90;99.90;;;;;;4991277;28;20468;-88
2023/02/01 13:14:16;;;;;;;18.65;10.88;;;1.90;99.90;;;;;;4987232;28;20123;-88
2023/02/01 13:16:45;;;;;;;23.40;12.60;;;1.80;99.90;;;;;;4990183;28;20034;-86
2023/02/01 13:19:24;;;;;;;19.90;11.85;;;1.90;99.90;;;;;;4991263;28;20542;-85
2023/02/01 13:21:55;;;;;;;27.50;15.20;;;1.90;99.90;;;;;;4989754;28;20064;-88
2023/02/01 13:24:35;;;;;;;26.02;14.75;;;1.90;99.90;;;;;;4987843;28;20493;-85
2023/02/01 13:27:07;;;;;;;22.77;14.05;;;1.80;99.90;;;;;;4986356;28;20042;-87
2023/02/01 13:29:34;;;;;;;30.10;15.63;;;1.90;99.90;;;;;;4988161;28;20097;-87
2023/02/01 13:32:03;;;;;;;30.38;15.48;;;1.90;99.90;;;;;;4990589;28;20060;-88
2023/02/01 13:34:49;;;;;;;30.38;15.15;;;1.90;99.90;;;;;;4991828;28;20034;-85
2023/02/01 13:38:05;;;;;;;32.33;15.55;;;2.00;99.90;;;;;;4989924;28;20022;-86
2023/02/01 13:40:41;;;;;;;33.22;14.27;;;2.00;99.90;;;;;;4981355;28;20066;-88
2023/02/01 13:43:15;;;;;;;24.92;14.20;;;2.00;99.90;;;;;;4993350;28;20522;-84
2023/02/01 13:45:53;;;;;;;22.95;12.40;;;1.90;99.90;;;;;;4991673;28;20041;-85
2023/02/01 13:48:54;;;;;;;23.67;12.55;;;1.90;99.90;;;;;;4990952;28;20034;-85
2023/02/01 13:51:38;;;;;;;30.10;15.00;;;1.90;99.90;;;;;;4992027;28;20444;-86